createdAt,value
2019-03-30T00:00:51.882Z,5.00
2019-03-30T00:03:20.451Z,5.20
2019-03-30T00:05:48.937Z,5.00
2019-03-30T00:08:17.958Z,5.50
2019-03-30T00:10:47.307Z,5.77
2019-03-30T00:13:16.927Z,5.83
2019-03-30T00:15:45.357Z,4.60
2019-03-30T00:18:14.144Z,4.90
2019-03-30T00:20:43.080Z,4.80
2019-03-30T00:23:12.085Z,4.97
2019-03-30T00:25:40.662Z,4.77
2019-03-30T00:28:09.448Z,5.13
2019-03-30T00:30:38.029Z,4.83
2019-03-30T00:33:06.852Z,4.53
2019-03-30T00:35:35.634Z,4.77
2019-03-30T00:38:04.542Z,4.10
2019-03-30T00:40:33.473Z,4.60
2019-03-30T00:43:02.508Z,4.17
2019-03-30T00:45:31.709Z,4.07
2019-03-30T00:48:00.209Z,3.93
2019-03-30T00:50:28.877Z,4.20
2019-03-30T00:52:57.712Z,4.03
2019-03-30T00:55:26.165Z,4.47
2019-03-30T00:57:54.827Z,4.33
2019-03-30T01:00:23.590Z,4.43
2019-03-30T01:02:52.570Z,4.43
2019-03-30T01:05:21.469Z,4.40
2019-03-30T01:07:50.104Z,4.37
2019-03-30T01:10:19.028Z,3.83
2019-03-30T01:12:47.992Z,3.90
2019-03-30T01:15:16.963Z,4.13
2019-03-30T01:17:45.740Z,4.10
2019-03-30T01:20:14.657Z,4.00
2019-03-30T01:22:43.567Z,3.83
2019-03-30T01:25:12.334Z,3.90
2019-03-30T01:27:41.197Z,4.70
2019-03-30T01:30:22.390Z,5.30
2019-03-30T01:32:40.842Z,4.90
2019-03-30T01:35:09.911Z,5.27
2019-03-30T01:37:38.869Z,4.80
2019-03-30T01:40:07.887Z,4.73
2019-03-30T01:42:36.553Z,4.20
2019-03-30T01:45:06.077Z,4.50
2019-03-30T01:47:34.957Z,4.00
2019-03-30T01:50:16.607Z,4.77
2019-03-30T01:52:34.434Z,4.17
2019-03-30T01:55:03.221Z,4.20
2019-03-30T01:57:31.752Z,4.00
2019-03-30T02:00:00.509Z,3.70
2019-03-30T02:02:29.277Z,3.70
2019-03-30T02:04:58.272Z,3.73
2019-03-30T02:07:27.098Z,3.60
2019-03-30T02:09:56.069Z,3.77
2019-03-30T02:12:24.961Z,3.67
2019-03-30T02:14:53.802Z,3.43
2019-03-30T02:17:22.401Z,3.60
2019-03-30T02:19:51.136Z,3.70
2019-03-30T02:22:20.190Z,3.50
2019-03-30T02:24:49.006Z,3.73
2019-03-30T02:27:17.651Z,3.77
2019-03-30T02:29:46.501Z,3.67
2019-03-30T02:32:15.558Z,3.77
2019-03-30T02:34:44.067Z,3.43
2019-03-30T02:37:12.950Z,3.50
2019-03-30T02:39:41.639Z,3.80
2019-03-30T02:42:10.702Z,3.77
2019-03-30T02:44:39.275Z,3.20
2019-03-30T02:47:07.730Z,3.43
2019-03-30T02:49:36.665Z,3.50
2019-03-30T02:52:05.540Z,3.77
2019-03-30T02:54:34.114Z,3.50
2019-03-30T02:57:03.146Z,3.40
2019-03-30T02:59:32.072Z,3.07
2019-03-30T03:02:00.839Z,3.10
2019-03-30T03:04:29.637Z,2.97
2019-03-30T03:06:58.642Z,3.33
2019-03-30T03:09:27.332Z,3.20
2019-03-30T03:11:56.423Z,3.30
2019-03-30T03:14:25.289Z,3.10
2019-03-30T03:16:54.315Z,3.10
2019-03-30T03:19:22.792Z,2.83
2019-03-30T03:21:51.676Z,2.93
2019-03-30T03:24:20.534Z,3.30
2019-03-30T03:26:49.343Z,3.23
2019-03-30T03:29:17.807Z,3.33
2019-03-30T03:31:46.774Z,3.33
2019-03-30T03:34:15.220Z,3.10
2019-03-30T03:36:44.100Z,3.27
2019-03-30T03:39:12.921Z,3.50
2019-03-30T03:41:41.886Z,3.00
2019-03-30T03:44:10.706Z,3.07
2019-03-30T03:46:39.171Z,3.30
2019-03-30T03:49:08.152Z,3.63
2019-03-30T03:51:37.064Z,3.43
2019-03-30T03:54:05.887Z,3.17
2019-03-30T03:56:36.592Z,3.30
2019-03-30T03:59:07.415Z,3.40
2019-03-30T04:01:36.947Z,3.70
2019-03-30T04:04:07.482Z,3.43
2019-03-30T04:06:38.906Z,3.27
2019-03-30T04:09:07.716Z,3.20
2019-03-30T04:11:39.028Z,3.47
2019-03-30T04:14:11.225Z,3.20
2019-03-30T04:16:39.791Z,3.13
2019-03-30T04:19:08.444Z,3.23
2019-03-30T04:21:44.164Z,3.80
2019-03-30T04:24:07.204Z,3.70
2019-03-30T04:26:35.654Z,3.43
2019-03-30T04:29:04.163Z,3.37
2019-03-30T04:31:32.619Z,3.70
2019-03-30T04:34:01.095Z,3.40
2019-03-30T04:36:29.604Z,3.60
2019-03-30T04:38:58.065Z,3.40
2019-03-30T04:41:26.599Z,3.67
2019-03-30T04:43:55.507Z,3.53
2019-03-30T04:46:24.076Z,3.67
2019-03-30T04:48:53.171Z,3.50
2019-03-30T04:51:21.499Z,3.80
2019-03-30T04:53:50.417Z,4.00
2019-03-30T04:56:18.923Z,3.57
2019-03-30T04:58:47.412Z,4.03
2019-03-30T05:01:15.871Z,4.30
2019-03-30T05:03:44.541Z,4.10
2019-03-30T05:06:13.083Z,4.10
2019-03-30T05:08:41.619Z,3.60
2019-03-30T05:11:18.263Z,3.70
2019-03-30T05:13:46.734Z,4.23
2019-03-30T05:16:15.185Z,3.60
2019-03-30T05:18:43.719Z,3.53
2019-03-30T05:21:12.249Z,3.60
2019-03-30T05:23:40.848Z,3.60
2019-03-30T05:26:09.359Z,3.80
2019-03-30T05:28:37.855Z,3.23
2019-03-30T05:31:06.283Z,3.80
2019-03-30T05:33:34.774Z,3.53
2019-03-30T05:36:03.273Z,3.27
2019-03-30T05:38:31.707Z,3.90
2019-03-30T05:41:00.300Z,4.03
2019-03-30T05:43:28.812Z,3.77
2019-03-30T05:45:57.373Z,4.70
2019-03-30T05:48:25.983Z,4.70
2019-03-30T05:50:54.397Z,4.20
2019-03-30T05:53:22.931Z,4.83
2019-03-30T05:55:51.396Z,4.27
2019-03-30T05:58:19.858Z,4.17
2019-03-30T06:00:48.671Z,4.13
2019-03-30T06:03:17.175Z,4.30
2019-03-30T06:05:45.599Z,4.20
2019-03-30T06:08:14.148Z,3.93
2019-03-30T06:10:42.633Z,3.70
2019-03-30T06:13:11.587Z,3.80
2019-03-30T06:15:40.210Z,3.80
2019-03-30T06:18:11.260Z,4.43
2019-03-30T06:20:39.059Z,4.07
2019-03-30T06:23:07.631Z,4.53
2019-03-30T06:25:36.049Z,4.03
2019-03-30T06:28:04.474Z,3.73
2019-03-30T06:30:32.911Z,3.43
2019-03-30T06:33:01.441Z,3.27
2019-03-30T06:35:29.927Z,3.80
2019-03-30T06:37:58.462Z,3.90
2019-03-30T06:40:27.011Z,9.23
2019-03-30T06:42:56.132Z,9.60
2019-03-30T06:45:24.595Z,5.73
2019-03-30T06:47:53.237Z,4.13
2019-03-30T06:50:21.839Z,8.00
2019-03-30T06:52:57.516Z,31.33
2019-03-30T06:55:20.774Z,15.53
2019-03-30T06:57:49.217Z,12.83
2019-03-30T07:00:27.225Z,11.57
2019-03-30T07:02:55.602Z,9.67
2019-03-30T07:05:24.206Z,10.20
2019-03-30T07:07:53.095Z,9.17
2019-03-30T07:10:21.645Z,9.90
2019-03-30T07:12:52.611Z,10.07
2019-03-30T07:15:21.430Z,10.07
2019-03-30T07:17:52.343Z,8.57
2019-03-30T07:20:26.766Z,8.70
2019-03-30T07:22:56.251Z,9.20
2019-03-30T07:25:25.042Z,8.00
2019-03-30T07:27:53.797Z,9.00
2019-03-30T07:30:22.455Z,9.17
2019-03-30T07:32:51.326Z,9.43
2019-03-30T07:35:19.870Z,9.50
2019-03-30T07:37:48.366Z,9.40
2019-03-30T07:40:16.870Z,9.03
2019-03-30T07:42:45.386Z,8.67
2019-03-30T07:45:14.096Z,8.77
2019-03-30T07:47:43.746Z,8.87
2019-03-30T07:50:25.405Z,7.67
2019-03-30T07:52:53.787Z,8.90
2019-03-30T07:55:22.561Z,8.30
2019-03-30T07:57:51.106Z,8.43
2019-03-30T08:00:20.399Z,7.80
2019-03-30T08:02:49.997Z,7.97
2019-03-30T08:05:18.544Z,8.33
2019-03-30T08:07:47.095Z,9.03
2019-03-30T08:10:39.039Z,9.20
2019-03-30T08:13:54.273Z,8.30
2019-03-30T08:17:16.214Z,9.50
2019-03-30T08:20:23.205Z,8.30
2019-03-30T08:22:50.395Z,8.50
2019-03-30T08:25:18.939Z,7.93
2019-03-30T08:28:43.494Z,7.90
2019-03-30T08:32:04.657Z,7.20
2019-03-30T08:35:18.686Z,7.30
2019-03-30T08:38:34.030Z,7.40
2019-03-30T08:41:03.089Z,6.67
2019-03-30T08:43:31.534Z,6.73
2019-03-30T08:46:54.236Z,6.47
2019-03-30T08:49:27.098Z,6.27
2019-03-30T08:52:34.603Z,5.33
2019-03-30T08:55:57.574Z,5.10
2019-03-30T08:58:25.948Z,5.30
2019-03-30T09:01:11.663Z,5.10
2019-03-30T09:03:40.086Z,4.67
2019-03-30T09:06:08.557Z,5.00
2019-03-30T09:08:37.223Z,4.40
2019-03-30T09:11:20.914Z,4.63
2019-03-30T09:13:49.386Z,4.30
2019-03-30T09:16:17.892Z,4.00
2019-03-30T09:18:46.556Z,4.47
2019-03-30T09:21:14.958Z,4.10
2019-03-30T09:23:43.595Z,3.87
2019-03-30T09:26:12.047Z,4.80
2019-03-30T09:28:40.516Z,4.73
2019-03-30T09:31:08.889Z,4.77
2019-03-30T09:33:37.398Z,5.23
2019-03-30T09:36:21.234Z,4.90
2019-03-30T09:38:50.124Z,4.70
2019-03-30T09:41:18.683Z,5.50
2019-03-30T09:43:47.277Z,5.50
2019-03-30T09:46:15.883Z,5.00
2019-03-30T09:48:44.361Z,4.70
2019-03-30T09:51:12.863Z,4.83
2019-03-30T09:53:41.506Z,5.63
2019-03-30T09:56:10.019Z,5.63
2019-03-30T09:58:38.463Z,5.33
2019-03-30T10:01:07.072Z,5.67
2019-03-30T10:03:35.432Z,5.03
2019-03-30T10:06:04.074Z,5.57
2019-03-30T10:08:32.596Z,5.10
2019-03-30T10:11:01.119Z,5.77
2019-03-30T10:13:31.144Z,5.10
2019-03-30T10:15:59.684Z,4.90
2019-03-30T10:18:28.167Z,5.80
2019-03-30T10:20:56.667Z,8.35
2019-03-30T10:23:25.310Z,6.72
2019-03-30T10:25:54.537Z,7.08
2019-03-30T10:28:23.026Z,5.90
2019-03-30T10:30:51.487Z,5.97
2019-03-30T10:33:20.035Z,5.25
2019-03-30T10:35:48.616Z,5.60
2019-03-30T10:38:17.178Z,5.72
2019-03-30T10:40:45.743Z,5.50
2019-03-30T10:43:14.247Z,5.17
2019-03-30T10:45:42.739Z,6.50
2019-03-30T10:48:11.153Z,5.53
2019-03-30T10:50:39.786Z,5.65
2019-03-30T10:53:08.330Z,5.58
2019-03-30T10:55:37.021Z,5.90
2019-03-30T10:58:05.662Z,5.80
2019-03-30T11:00:38.213Z,6.35
2019-03-30T11:03:06.880Z,5.95
2019-03-30T11:05:35.601Z,5.70
2019-03-30T11:08:04.803Z,4.72
2019-03-30T11:10:33.355Z,4.67
2019-03-30T11:13:02.455Z,5.17
2019-03-30T11:15:37.788Z,4.78
2019-03-30T11:18:06.652Z,5.22
2019-03-30T11:20:35.135Z,4.37
2019-03-30T11:23:04.097Z,4.70
2019-03-30T11:25:32.634Z,4.60
2019-03-30T11:28:01.033Z,5.42
2019-03-30T11:30:29.498Z,4.70
2019-03-30T11:32:58.018Z,4.92
2019-03-30T11:35:26.491Z,5.08
2019-03-30T11:37:55.016Z,4.25
2019-03-30T11:40:23.614Z,4.30
2019-03-30T11:42:52.088Z,4.42
2019-03-30T11:45:20.795Z,5.00
2019-03-30T11:47:49.358Z,4.62
2019-03-30T11:50:17.778Z,4.30
2019-03-30T11:52:46.721Z,3.90
2019-03-30T11:55:30.203Z,4.42
2019-03-30T11:58:34.482Z,4.25
2019-03-30T12:01:31.079Z,4.47
2019-03-30T12:03:59.247Z,4.45
2019-03-30T12:06:27.720Z,4.50
2019-03-30T12:08:56.204Z,4.90
2019-03-30T12:11:24.736Z,4.62
2019-03-30T12:13:53.796Z,4.40
2019-03-30T12:16:33.944Z,4.80
2019-03-30T12:19:17.872Z,4.00
2019-03-30T12:21:46.407Z,3.90
2019-03-30T12:24:14.832Z,4.30
2019-03-30T12:26:43.379Z,4.15
2019-03-30T12:29:40.791Z,4.60
2019-03-30T12:32:42.914Z,4.30
2019-03-30T12:35:40.490Z,4.33
2019-03-30T12:38:37.813Z,3.92
2019-03-30T12:49:55.040Z,4.00
2019-03-30T12:53:49.200Z,3.67
2019-03-30T13:00:36.016Z,3.35
2019-03-30T13:03:54.451Z,3.52
2019-03-30T13:07:50.354Z,3.40
2019-03-30T13:10:48.645Z,4.00
2019-03-30T13:13:17.248Z,3.77
2019-03-30T13:15:58.550Z,3.67
2019-03-30T13:18:27.017Z,3.87
2019-03-30T13:20:55.536Z,3.52
2019-03-30T13:23:24.006Z,3.33
2019-03-30T13:26:02.859Z,3.40
2019-03-30T13:28:22.945Z,3.60
2019-03-30T13:30:51.385Z,3.77
2019-03-30T13:33:19.850Z,3.65
2019-03-30T13:35:48.317Z,3.60
2019-03-30T13:38:16.819Z,3.22
2019-03-30T13:40:45.415Z,3.40
2019-03-30T13:43:13.928Z,3.60
2019-03-30T13:45:42.559Z,3.30
2019-03-30T13:48:11.274Z,3.60
2019-03-30T13:50:39.833Z,3.75
2019-03-30T13:53:08.293Z,3.50
2019-03-30T13:55:36.724Z,3.40
2019-03-30T13:58:05.183Z,3.85
2019-03-30T14:00:33.767Z,3.95
2019-03-30T14:03:02.284Z,3.45
2019-03-30T14:05:30.910Z,3.65
2019-03-30T14:07:59.407Z,4.30
2019-03-30T14:10:27.852Z,3.47
2019-03-30T14:12:56.564Z,4.35
2019-03-30T14:16:02.442Z,6.08
2019-03-30T14:18:29.932Z,4.12
2019-03-30T14:20:58.535Z,3.62
2019-03-30T14:23:26.958Z,3.83
2019-03-30T14:25:55.438Z,3.98
2019-03-30T14:28:23.943Z,4.15
2019-03-30T14:30:52.460Z,3.58
2019-03-30T14:33:21.089Z,3.65
2019-03-30T14:35:49.535Z,3.20
2019-03-30T14:38:18.019Z,3.60
2019-03-30T14:40:46.584Z,3.30
2019-03-30T14:43:15.433Z,3.58
2019-03-30T14:45:43.851Z,3.42
2019-03-30T14:48:12.475Z,3.47
2019-03-30T14:50:40.933Z,4.22
2019-03-30T14:53:09.588Z,3.72
2019-03-30T14:55:39.747Z,3.67
2019-03-30T14:58:08.427Z,3.65
2019-03-30T15:00:40.500Z,3.75
2019-03-30T15:03:09.250Z,3.80
2019-03-30T15:05:37.822Z,3.30
2019-03-30T15:08:06.457Z,3.30
2019-03-30T15:10:35.017Z,3.12
2019-03-30T15:13:03.867Z,3.58
2019-03-30T15:16:12.664Z,3.50
2019-03-30T15:18:39.648Z,4.90
2019-03-30T15:21:08.644Z,3.52
2019-03-30T15:23:37.298Z,3.40
2019-03-30T15:26:05.910Z,3.72
2019-03-30T15:28:34.361Z,3.45
2019-03-30T15:31:03.017Z,3.30
2019-03-30T15:33:31.644Z,3.20
2019-03-30T15:36:00.074Z,3.20
2019-03-30T15:38:28.658Z,4.30
2019-03-30T15:40:57.127Z,4.70
2019-03-30T15:43:37.526Z,4.83
2019-03-30T15:45:56.033Z,4.05
2019-03-30T15:48:27.996Z,3.10
2019-03-30T15:50:54.818Z,3.50
2019-03-30T15:53:23.438Z,3.08
2019-03-30T15:55:51.890Z,3.80
2019-03-30T15:58:20.330Z,4.05
2019-03-30T16:00:49.011Z,7.25
2019-03-30T16:03:17.547Z,6.75
2019-03-30T16:05:46.079Z,3.70
2019-03-30T16:08:14.579Z,3.17
2019-03-30T16:10:43.290Z,3.20
2019-03-30T16:13:14.439Z,3.67
2019-03-30T16:16:23.970Z,3.75
2019-03-30T16:18:50.809Z,6.20
2019-03-30T16:21:19.464Z,7.53
2019-03-30T16:23:47.963Z,6.17
2019-03-30T16:26:16.798Z,5.62
2019-03-30T16:28:45.395Z,5.83
2019-03-30T16:31:14.027Z,5.58
2019-03-30T16:33:42.586Z,10.87
2019-03-30T16:36:11.092Z,13.83
2019-03-30T16:38:39.521Z,6.40
2019-03-30T16:41:08.049Z,4.00
2019-03-30T16:43:36.539Z,3.60
2019-03-30T16:46:05.172Z,3.50
2019-03-30T16:48:33.845Z,4.33
2019-03-30T16:51:02.337Z,4.03
2019-03-30T16:53:30.883Z,6.10
2019-03-30T16:55:59.359Z,6.53
2019-03-30T16:58:27.982Z,6.67
2019-03-30T17:00:57.152Z,7.13
2019-03-30T17:03:25.843Z,5.03
2019-03-30T17:05:54.312Z,4.00
2019-03-30T17:08:22.786Z,4.37
2019-03-30T17:10:51.225Z,4.37
2019-03-30T17:13:19.901Z,4.37
2019-03-30T17:16:38.010Z,4.20
2019-03-30T17:19:04.386Z,3.77
2019-03-30T17:21:32.935Z,4.40
2019-03-30T17:24:01.578Z,8.70
2019-03-30T17:26:29.945Z,9.87
2019-03-30T17:29:11.389Z,7.93
2019-03-30T17:31:39.879Z,7.47
2019-03-30T17:34:26.560Z,11.27
2019-03-30T17:37:14.493Z,10.63
2019-03-30T17:39:58.603Z,11.03
2019-03-30T17:42:40.488Z,11.13
2019-03-30T17:45:24.081Z,12.57
2019-03-30T17:47:52.609Z,10.97
2019-03-30T17:50:21.634Z,10.17
2019-03-30T17:53:01.655Z,9.00
2019-03-30T17:55:33.967Z,9.03
2019-03-30T17:58:12.224Z,10.83
2019-03-30T18:00:31.012Z,9.20
2019-03-30T18:02:59.515Z,9.80
2019-03-30T18:05:28.008Z,9.43
2019-03-30T18:07:56.405Z,9.03
2019-03-30T18:10:25.125Z,9.17
2019-03-30T18:12:53.698Z,9.37
2019-03-30T18:16:00.775Z,10.57
2019-03-30T18:18:27.714Z,11.23
2019-03-30T18:20:56.400Z,9.20
2019-03-30T18:23:25.080Z,11.10
2019-03-30T18:25:53.561Z,10.23
2019-03-30T18:28:27.241Z,11.17
2019-03-30T18:30:52.814Z,9.07
2019-03-30T18:33:28.057Z,7.90
2019-03-30T18:35:55.943Z,8.77
2019-03-30T18:38:24.571Z,8.57
2019-03-30T18:40:53.146Z,8.37
2019-03-30T18:43:21.758Z,8.13
2019-03-30T18:46:04.896Z,7.50
2019-03-30T18:48:33.628Z,8.10
2019-03-30T18:51:01.958Z,9.00
2019-03-30T18:53:30.577Z,9.50
2019-03-30T18:55:59.036Z,10.37
2019-03-30T18:58:40.694Z,8.60
2019-03-30T19:00:57.862Z,6.93
2019-03-30T19:03:26.257Z,7.00
2019-03-30T19:05:54.734Z,7.17
2019-03-30T19:08:23.208Z,6.57
2019-03-30T19:10:51.665Z,9.23
2019-03-30T19:13:20.222Z,8.30
2019-03-30T19:16:31.264Z,7.23
2019-03-30T19:18:58.054Z,7.07
2019-03-30T19:21:26.555Z,6.50
2019-03-30T19:23:55.298Z,7.30
2019-03-30T19:26:23.790Z,6.10
2019-03-30T19:28:56.455Z,6.07
2019-03-30T19:31:23.173Z,5.50
2019-03-30T19:33:51.990Z,6.00
2019-03-30T19:36:20.407Z,5.60
2019-03-30T19:38:48.970Z,6.17
2019-03-30T19:41:17.543Z,5.67
2019-03-30T19:43:46.433Z,6.57
2019-03-30T19:46:14.975Z,6.30
2019-03-30T19:48:43.599Z,6.03
2019-03-30T19:51:12.150Z,6.43
2019-03-30T19:53:40.637Z,7.20
2019-03-30T19:56:09.222Z,7.57
2019-03-30T19:58:37.702Z,8.47
2019-03-30T20:01:06.630Z,9.07
2019-03-30T20:03:35.065Z,8.20
2019-03-30T20:06:03.634Z,7.13
2019-03-30T20:08:32.122Z,6.60
2019-03-30T20:11:00.786Z,6.50
2019-03-30T20:13:29.313Z,5.63
2019-03-30T20:16:41.984Z,5.77
2019-03-30T20:19:12.783Z,6.23
2019-03-30T20:21:37.363Z,5.97
2019-03-30T20:24:06.112Z,7.17
2019-03-30T20:26:34.645Z,7.10
2019-03-30T20:29:03.713Z,6.47
2019-03-30T20:31:32.314Z,6.47
2019-03-30T20:34:00.693Z,7.33
2019-03-30T20:36:29.437Z,7.33
2019-03-30T20:38:58.263Z,7.73
2019-03-30T20:41:26.851Z,8.23
2019-03-30T20:43:55.761Z,8.73
2019-03-30T20:46:24.896Z,8.53
2019-03-30T20:48:53.777Z,8.37
2019-03-30T20:51:22.323Z,7.87
2019-03-30T20:53:50.728Z,8.00
2019-03-30T20:56:19.224Z,9.43
2019-03-30T20:58:47.726Z,9.13
2019-03-30T21:01:16.414Z,7.33
2019-03-30T21:03:44.861Z,6.23
2019-03-30T21:06:13.363Z,5.80
2019-03-30T21:08:41.781Z,6.13
2019-03-30T21:11:15.726Z,5.70
2019-03-30T21:13:44.119Z,6.07
2019-03-30T21:17:00.405Z,6.33
2019-03-30T21:19:27.070Z,6.40
2019-03-30T21:21:55.643Z,7.07
2019-03-30T21:24:24.071Z,6.10
2019-03-30T21:27:32.850Z,5.67
2019-03-30T21:30:01.326Z,5.60
2019-03-30T21:32:30.204Z,5.53
2019-03-30T21:34:58.706Z,5.67
2019-03-30T21:37:27.185Z,5.17
2019-03-30T21:39:55.670Z,5.40
2019-03-30T21:42:24.116Z,5.13
2019-03-30T21:44:52.679Z,5.80
2019-03-30T21:47:21.122Z,5.47
2019-03-30T21:49:49.878Z,5.67
2019-03-30T21:52:18.336Z,5.90
2019-03-30T21:54:46.934Z,5.67
2019-03-30T21:57:15.379Z,5.30
2019-03-30T21:59:43.978Z,5.53
2019-03-30T22:02:12.562Z,5.23
2019-03-30T22:04:40.972Z,5.93
2019-03-30T22:07:09.474Z,5.90
2019-03-30T22:09:38.438Z,5.27
2019-03-30T22:12:06.961Z,6.27
2019-03-30T22:15:00.881Z,9.80
2019-03-30T22:17:29.508Z,9.27
2019-03-30T22:19:57.950Z,7.13
2019-03-30T22:22:26.395Z,7.27
2019-03-30T22:24:55.203Z,6.73
2019-03-30T22:27:23.791Z,6.27
2019-03-30T22:29:52.293Z,5.80
2019-03-30T22:32:20.679Z,5.87
2019-03-30T22:34:49.329Z,5.60
2019-03-30T22:37:17.820Z,5.73
2019-03-30T22:39:46.246Z,5.60
2019-03-30T22:42:15.164Z,6.10
2019-03-30T22:44:43.654Z,5.77
2019-03-30T22:47:12.135Z,5.93
2019-03-30T22:49:40.645Z,6.43
2019-03-30T22:52:09.536Z,6.33
2019-03-30T22:54:38.323Z,5.70
2019-03-30T22:57:06.950Z,5.37
2019-03-30T22:59:35.502Z,5.27
2019-03-30T23:02:04.486Z,5.23
2019-03-30T23:04:33.146Z,5.43
2019-03-30T23:07:04.440Z,4.90
2019-03-30T23:09:33.011Z,5.80
2019-03-30T23:12:01.518Z,5.57
2019-03-30T23:14:30.105Z,5.63
2019-03-30T23:16:58.460Z,5.00
2019-03-30T23:19:27.038Z,5.47
2019-03-30T23:21:56.179Z,5.23
2019-03-30T23:24:24.596Z,5.23
2019-03-30T23:26:53.067Z,4.80
2019-03-30T23:29:21.667Z,5.17
2019-03-30T23:31:50.199Z,5.57
2019-03-30T23:34:18.742Z,5.23
2019-03-30T23:36:47.403Z,5.07
2019-03-30T23:39:15.922Z,5.10
2019-03-30T23:41:44.405Z,5.50
2019-03-30T23:44:12.910Z,5.40
2019-03-30T23:46:41.458Z,5.87
2019-03-30T23:49:09.961Z,6.27
2019-03-30T23:51:38.460Z,5.30
2019-03-30T23:54:12.849Z,6.23
2019-03-30T23:56:41.329Z,5.57
2019-03-30T23:59:09.852Z,5.60
